Arrival - Weather - Departure
Ostend Airport (EBOS - OST)
This page refreshes every 5 minutes.
Contact New Style NL | EN  Best Resolution: 1280x1024

Page last updated at 03:27:14
WEER EBOS TEST PAGE WEER
The report was made at 01:20 UTC (Now: 01:27:14 UTC)
The wind blows with a force of 11 km/h and is from the southwest
The sight is 9999 meter Runway 26 in use
The temperature is 13 °C The dew point is 11 °C
The humidity is 88 %
The air pressure is 1014 HPa
The weather is now few clouds at 640 meter altitude
The next two hours there is no significant change
2016/09/30 01:20 EBOS 300120Z 22006KT 9999 FEW021 13/11 Q1014 NOSIG
METAR EBOS TAF EBOS Info METAR
© Bert Sanders

 
Interesting websites about EBOS
EBOS-Spotting
REPLO
Website airport
Other interesting websites
Spottinggroup RS06
Android app on Google Play